Time;durP1;ratioP1;P1;durP2;ratioP2;P2;SDS_P1;SDS_P2;PMS_P1;PMS_P2;Temp;Humidity;BMP_temperature;BMP_pressure;BME280_temperature;BME280_humidity;BME280_pressure;Samples;Min_cycle;Max_cycle;Signal;HPM_P1;HPM_P2
2022/03/29 00:01:24;;;;;;;4.53;1.92;;;;;;;14.08;50.24;101022.03;5206498;28;20058;-81
2022/03/29 00:03:55;;;;;;;2.67;2.47;;;;;;;14.08;50.31;101019.38;5173901;28;20064;-80
2022/03/29 00:06:28;;;;;;;2.38;2.17;;;;;;;14.06;50.53;101020.31;5189642;28;20041;-81
2022/03/29 00:08:59;;;;;;;10.05;3.78;;;;;;;14.05;50.54;101023.91;5171970;28;20026;-81
2022/03/29 00:11:30;;;;;;;1.02;1.02;;;;;;;14.05;50.42;101024.75;5200950;28;20124;-80
2022/03/29 00:14:02;;;;;;;1.85;0.88;;;;;;;14.01;50.36;101018.75;5207198;28;20124;-81
2022/03/29 00:16:33;;;;;;;1.65;1.42;;;;;;;14.02;51.06;101019.59;5203827;28;20091;-80
2022/03/29 00:19:04;;;;;;;3.03;1.70;;;;;;;14.00;50.49;101013.53;5208382;28;20338;-80
2022/03/29 00:21:35;;;;;;;2.92;1.40;;;;;;;13.93;50.39;101009.38;5168342;28;20108;-81
2022/03/29 00:24:06;;;;;;;6.50;2.60;;;;;;;13.84;50.73;101005.28;5194459;28;20112;-80
2022/03/29 00:26:36;;;;;;;1.52;1.42;;;;;;;13.76;50.45;101005.56;5201019;28;20045;-80
2022/03/29 00:29:08;;;;;;;3.60;2.03;;;;;;;13.78;50.45;101006.38;5196079;28;20189;-80
2022/03/29 00:31:38;;;;;;;1.40;1.30;;;;;;;13.78;50.42;101001.09;5197749;28;20056;-80
2022/03/29 00:34:09;;;;;;;2.60;2.40;;;;;;;13.77;50.63;101004.66;5187880;28;20076;-80
2022/03/29 00:36:40;;;;;;;1.48;1.42;;;;;;;13.79;50.62;100996.69;5190001;28;20103;-80
2022/03/29 00:39:10;;;;;;;1.95;1.83;;;;;;;13.77;50.74;100994.09;5200314;28;20033;-80
2022/03/29 00:41:41;;;;;;;1.25;1.17;;;;;;;13.75;51.09;100995.06;5200503;28;20042;-80
2022/03/29 00:44:15;;;;;;;2.22;1.25;;;;;;;13.77;50.97;100998.53;5202412;28;20092;-80
2022/03/29 00:46:47;;;;;;;7.10;1.60;;;;;;;13.74;50.94;100986.31;5205012;28;20037;-80
2022/03/29 00:49:17;;;;;;;1.60;1.50;;;;;;;13.70;50.89;100989.97;5193105;28;20022;-80
2022/03/29 00:51:49;;;;;;;1.98;1.83;;;;;;;13.72;51.11;100982.03;5173736;28;20127;-80
2022/03/29 00:54:20;;;;;;;1.73;1.63;;;;;;;13.68;51.15;100978.59;5218833;28;20029;-80
2022/03/29 00:56:50;;;;;;;3.72;3.08;;;;;;;13.69;51.24;100980.31;5188354;28;20052;-80
2022/03/29 00:59:21;;;;;;;1.98;1.88;;;;;;;13.69;51.27;100977.69;5187870;28;20048;-79
2022/03/29 01:01:52;;;;;;;2.38;2.20;;;;;;;13.67;51.45;100977.75;5187387;28;20049;-80
2022/03/29 01:04:25;;;;;;;4.75;2.15;;;;;;;13.55;51.22;100972.94;5193575;28;20119;-80
2022/03/29 01:06:58;;;;;;;1.55;1.45;;;;;;;13.48;51.58;100966.13;5212395;28;20093;-80
2022/03/29 01:09:30;;;;;;;2.90;1.38;;;;;;;13.48;51.55;100967.00;5166194;28;20061;-80
2022/03/29 01:12:01;;;;;;;1.40;1.35;;;;;;;13.48;51.20;100966.13;5165594;28;20101;-80
2022/03/29 01:14:34;;;;;;;1.80;1.65;;;;;;;13.49;51.42;100957.31;5195077;28;20143;-80
2022/03/29 01:19:58;;;;;;;1.65;1.55;;;;;;;13.43;51.35;100958.38;5202049;28;20022;-80
2022/03/29 01:22:29;;;;;;;13.25;1.67;;;;;;;13.42;51.25;100954.06;5195720;28;20505;-80
2022/03/29 01:25:01;;;;;;;1.25;1.02;;;;;;;13.39;51.37;100951.53;5163741;28;20202;-80
2022/03/29 01:27:34;;;;;;;3.75;1.95;;;;;;;13.28;51.47;100951.00;5168684;28;20127;-80
2022/03/29 01:30:06;;;;;;;1.52;1.42;;;;;;;13.29;51.64;100945.69;5185382;28;20097;-80
2022/03/29 01:32:40;;;;;;;2.85;2.03;;;;;;;13.29;51.49;100944.81;5193019;28;20044;-80
2022/03/29 01:35:12;;;;;;;1.75;1.60;;;;;;;13.29;51.74;100944.81;5192376;28;20033;-80
2022/03/29 01:37:42;;;;;;;3.10;1.35;;;;;;;13.27;51.54;100941.34;5208255;28;20133;-80
2022/03/29 01:40:16;;;;;;;2.33;2.15;;;;;;;13.19;51.57;100939.84;5179391;28;20069;-80
2022/03/29 01:42:48;;;;;;;;;;;;;;;13.20;51.68;100935.47;5206333;28;20021;-81
2022/03/29 01:45:28;;;;;;;4.18;1.58;;;;;;;13.09;52.95;100937.59;5194032;28;19917;-80
2022/03/29 01:47:58;;;;;;;2.35;1.70;;;;;;;13.13;51.72;100926.91;5211697;28;20020;-80
2022/03/29 01:50:29;;;;;;;2.72;2.53;;;;;;;13.11;51.61;100922.59;5184198;28;20098;-81
2022/03/29 01:53:00;;;;;;;2.35;1.67;;;;;;;13.02;52.25;100923.75;5195539;28;20111;-80
2022/03/29 01:55:30;;;;;;;2.90;2.70;;;;;;;13.04;51.89;100914.03;5172128;28;20041;-80
2022/03/29 01:58:04;;;;;;;2.40;2.30;;;;;;;12.87;52.56;100912.84;5186243;28;20034;-80
2022/03/29 02:00:34;;;;;;;1.13;1.13;;;;;;;13.02;52.05;100911.47;5201146;28;20474;-80
2022/03/29 02:03:06;;;;;;;2.10;1.70;;;;;;;12.99;52.07;100902.81;5205367;28;20077;-80
2022/03/29 02:05:37;;;;;;;3.22;2.90;;;;;;;12.98;51.99;100903.72;5206133;28;20035;-80
2022/03/29 02:08:08;;;;;;;1.77;1.67;;;;;;;12.95;51.82;100899.44;5207038;28;20029;-80
2022/03/29 02:10:38;;;;;;;1.58;1.48;;;;;;;12.91;52.64;100903.06;5197986;28;20038;-81
2022/03/29 02:13:09;;;;;;;3.35;1.75;;;;;;;12.91;52.14;100900.44;5204267;28;20041;-80
2022/03/29 02:15:43;;;;;;;2.03;1.92;;;;;;;12.89;52.21;100897.84;5203382;28;20029;-81
2022/03/29 02:18:13;;;;;;;2.33;2.17;;;;;;;12.88;52.79;100893.50;5208768;28;20026;-80
2022/03/29 02:20:44;;;;;;;1.33;1.30;;;;;;;12.90;52.51;100896.06;5190435;28;20041;-80
2022/03/29 02:23:15;;;;;;;3.33;2.90;;;;;;;12.86;52.39;100894.47;5206542;28;20037;-79
2022/03/29 02:25:46;;;;;;;1.35;1.25;;;;;;;12.81;52.64;100891.16;5227067;28;20042;-80
2022/03/29 02:28:16;;;;;;;9.27;3.22;;;;;;;12.72;52.94;100887.03;5209283;28;20093;-80
2022/03/29 02:30:47;;;;;;;1.90;1.80;;;;;;;12.75;52.76;100886.94;5230219;28;20022;-80
2022/03/29 02:33:17;;;;;;;2.05;1.92;;;;;;;12.76;52.99;100883.41;5195523;28;20099;-80
2022/03/29 02:35:48;;;;;;;1.05;0.90;;;;;;;12.78;52.39;100884.19;5171995;28;20104;-80
2022/03/29 02:38:20;;;;;;;1.90;1.80;;;;;;;12.76;52.39;100880.75;5233445;28;20037;-79
2022/03/29 02:40:50;;;;;;;1.38;1.27;;;;;;;12.76;52.82;100878.13;5171234;28;20045;-80
2022/03/29 02:43:21;;;;;;;1.17;1.17;;;;;;;12.69;52.64;100866.94;5203249;28;20162;-80
2022/03/29 02:45:52;;;;;;;2.63;2.30;;;;;;;12.67;52.79;100867.91;5185306;28;20060;-80
2022/03/29 02:48:22;;;;;;;2.80;2.60;;;;;;;12.70;53.06;100862.53;5190157;28;20055;-80
2022/03/29 02:50:53;;;;;;;6.07;3.30;;;;;;;12.69;52.96;100869.56;5184599;28;20464;-80
2022/03/29 02:53:23;;;;;;;1.67;1.58;;;;;;;12.45;53.87;100863.34;5178730;28;20128;-79
2022/03/29 02:55:54;;;;;;;1.38;1.30;;;;;;;12.55;52.95;100859.50;5191589;28;20095;-80
2022/03/29 02:58:24;;;;;;;1.45;1.08;;;;;;;12.56;53.20;100855.09;5190077;28;20025;-80
2022/03/29 03:00:55;;;;;;;2.45;2.25;;;;;;;12.52;53.69;100848.22;5194738;28;20090;-80
2022/03/29 03:03:26;;;;;;;1.08;1.08;;;;;;;12.54;53.13;100855.13;5170278;28;20057;-80
2022/03/29 03:05:56;;;;;;;1.88;1.75;;;;;;;12.21;55.24;100852.69;5193685;28;20561;-80
2022/03/29 03:08:27;;;;;;;1.88;1.10;;;;;;;12.32;53.76;100854.13;5211537;28;20029;-80
2022/03/29 03:10:57;;;;;;;3.55;2.55;;;;;;;12.31;53.80;100844.50;5206328;28;20076;-80
2022/03/29 03:13:28;;;;;;;3.33;3.03;;;;;;;12.42;53.40;100842.41;5177624;28;20041;-80
2022/03/29 03:15:58;;;;;;;1.98;1.88;;;;;;;12.41;53.37;100838.03;5174261;28;20780;-80
2022/03/29 03:18:29;;;;;;;5.10;3.15;;;;;;;12.43;53.80;100833.59;5205789;28;20043;-79
2022/03/29 03:20:59;;;;;;;1.42;1.33;;;;;;;12.30;54.02;100830.50;5205344;28;20140;-79
2022/03/29 03:23:30;;;;;;;2.85;1.77;;;;;;;12.22;54.30;100830.75;5201900;28;20033;-80
2022/03/29 03:26:01;;;;;;;3.70;1.95;;;;;;;12.38;54.40;100835.50;5203375;28;20045;-80
2022/03/29 03:28:31;;;;;;;7.47;1.95;;;;;;;12.35;53.67;100833.00;5172275;28;20180;-79
2022/03/29 03:31:02;;;;;;;5.10;1.50;;;;;;;12.26;54.17;100827.13;5199264;28;20131;-79
2022/03/29 03:33:33;;;;;;;1.40;1.30;;;;;;;12.33;53.52;100830.38;5176395;28;21021;-79
2022/03/29 03:36:04;;;;;;;1.00;1.00;;;;;;;12.34;53.54;100818.13;5177846;28;20093;-80
2022/03/29 03:38:34;;;;;;;2.15;1.50;;;;;;;12.31;53.70;100831.34;5190792;28;20081;-80
2022/03/29 03:41:05;;;;;;;1.85;1.75;;;;;;;12.37;53.64;100826.75;5191154;28;20068;-80
2022/03/29 03:43:35;;;;;;;7.75;2.30;;;;;;;12.26;53.78;100816.59;5191489;28;20034;-80
2022/03/29 03:46:07;;;;;;;4.20;2.85;;;;;;;12.22;54.85;100817.59;5167244;28;20036;-80
2022/03/29 03:48:38;;;;;;;1.52;1.42;;;;;;;12.25;54.01;100814.88;5193538;28;20045;-80
2022/03/29 03:51:08;;;;;;;5.72;2.33;;;;;;;12.18;53.78;100815.09;5190406;28;20198;-80
2022/03/29 03:53:39;;;;;;;1.88;1.77;;;;;;;12.25;54.05;100811.38;5187577;28;20030;-80
2022/03/29 03:56:10;;;;;;;1.95;1.85;;;;;;;12.09;54.18;100796.09;5206108;28;20042;-80
2022/03/29 03:58:41;;;;;;;1.85;1.13;;;;;;;12.15;54.27;100810.81;5195276;28;20029;-80
2022/03/29 04:01:11;;;;;;;2.95;2.75;;;;;;;12.18;53.76;100797.56;5191955;28;20060;-80
2022/03/29 04:03:42;;;;;;;2.40;2.25;;;;;;;12.22;54.06;100793.91;5204022;28;20086;-81
2022/03/29 04:06:12;;;;;;;1.70;1.60;;;;;;;12.20;53.62;100790.47;5211051;28;20021;-80
2022/03/29 04:08:43;;;;;;;1.67;0.85;;;;;;;12.06;54.15;100783.06;5186671;28;20041;-81
2022/03/29 04:11:13;;;;;;;2.67;1.77;;;;;;;12.13;54.31;100773.16;5217974;28;20081;-81
2022/03/29 04:13:44;;;;;;;2.08;1.92;;;;;;;12.12;54.00;100776.72;5173094;28;20037;-81
2022/03/29 04:16:15;;;;;;;2.50;2.00;;;;;;;12.08;54.34;100775.09;5184555;28;20034;-79
2022/03/29 04:18:45;;;;;;;2.60;2.40;;;;;;;12.09;54.18;100775.03;5187356;28;20032;-81
2022/03/29 04:21:16;;;;;;;1.85;1.75;;;;;;;12.09;53.78;100777.66;5169951;28;20053;-82
2022/03/29 04:23:46;;;;;;;1.15;1.15;;;;;;;12.02;54.58;100772.69;5186323;28;20182;-82
2022/03/29 04:26:17;;;;;;;1.80;1.67;;;;;;;12.09;54.82;100776.81;5170212;28;20025;-81
2022/03/29 04:28:47;;;;;;;2.47;1.95;;;;;;;12.02;54.61;100772.69;5185027;28;20043;-81
2022/03/29 04:31:18;;;;;;;3.17;2.58;;;;;;;11.92;54.54;100767.69;5170333;28;20035;-81
2022/03/29 04:33:48;;;;;;;1.30;1.17;;;;;;;11.96;54.29;100765.81;5188693;28;20037;-80
2022/03/29 04:36:19;;;;;;;2.70;1.85;;;;;;;11.94;54.08;100762.34;5173138;28;20037;-80
2022/03/29 04:38:49;;;;;;;1.80;1.70;;;;;;;12.01;54.46;100765.69;5218554;28;20029;-80
2022/03/29 04:41:21;;;;;;;5.18;1.92;;;;;;;11.91;54.26;100752.81;5195143;28;20147;-81
2022/03/29 04:43:52;;;;;;;1.73;1.58;;;;;;;11.88;54.04;100758.16;5185954;28;20110;-80
2022/03/29 04:46:23;;;;;;;2.83;2.63;;;;;;;11.94;54.41;100751.84;5181688;28;20034;-80
2022/03/29 04:48:54;;;;;;;2.75;2.15;;;;;;;11.92;54.53;100748.41;5204389;28;20684;-81
2022/03/29 04:51:28;;;;;;;1.00;0.70;;;;;;;11.92;54.08;100749.28;5140764;28;20047;-80
2022/03/29 04:53:59;;;;;;;1.20;1.17;;;;;;;11.88;54.11;100741.53;5166080;28;20068;-82
2022/03/29 04:56:30;;;;;;;14.48;2.13;;;;;;;11.87;54.43;100734.56;5194315;28;20049;-80
2022/03/29 04:59:00;;;;;;;4.18;2.50;;;;;;;11.85;54.37;100736.34;5168918;28;20029;-79
2022/03/29 05:01:32;;;;;;;2.28;2.15;;;;;;;11.84;54.31;100730.25;5194401;28;20115;-79
2022/03/29 05:04:03;;;;;;;1.30;1.20;;;;;;;11.77;54.61;100734.84;5172635;28;20025;-80
2022/03/29 05:06:34;;;;;;;3.15;2.78;;;;;;;11.87;54.69;100726.66;5187182;28;20057;-80
2022/03/29 05:09:05;;;;;;;5.15;3.28;;;;;;;11.76;54.77;100722.59;5185453;28;20022;-79
2022/03/29 05:11:37;;;;;;;2.20;2.00;;;;;;;11.76;54.41;100717.34;5173994;28;20076;-79
2022/03/29 05:14:08;;;;;;;2.20;2.00;;;;;;;11.61;54.75;100723.94;5177666;28;20565;-79
2022/03/29 05:16:39;;;;;;;1.52;1.42;;;;;;;11.57;54.45;100732.00;5171228;28;20041;-79
2022/03/29 05:19:10;;;;;;;0.88;0.88;;;;;;;11.61;55.48;100723.94;5201469;28;20112;-79
2022/03/29 05:21:40;;;;;;;3.20;2.90;;;;;;;11.55;55.03;100732.03;5186064;28;20097;-80
2022/03/29 05:24:11;;;;;;;2.17;2.00;;;;;;;11.29;56.61;100733.66;5191210;28;20025;-80
2022/03/29 05:26:42;;;;;;;2.90;2.42;;;;;;;11.32;56.31;100730.97;5204856;28;20045;-80
2022/03/29 05:29:12;;;;;;;2.55;2.28;;;;;;;11.37;55.72;100729.94;5173036;28;20029;-80
2022/03/29 05:31:43;;;;;;;1.10;1.10;;;;;;;11.42;55.41;100728.06;5193331;28;20056;-79
2022/03/29 05:34:14;;;;;;;2.13;2.03;;;;;;;11.46;55.01;100727.94;5190652;28;20120;-79
2022/03/29 05:36:45;;;;;;;0.90;0.90;;;;;;;11.35;56.35;100727.38;5188960;28;20121;-79
2022/03/29 05:39:16;;;;;;;3.70;2.67;;;;;;;11.48;55.43;100725.25;5168092;28;20109;-79
2022/03/29 05:41:47;;;;;;;1.83;1.70;;;;;;;11.47;55.02;100711.25;5208328;28;20064;-79
2022/03/29 05:44:18;;;;;;;1.83;1.73;;;;;;;11.28;55.67;100720.59;5200899;28;20036;-80
2022/03/29 05:49:37;;;;;;;10.27;3.08;;;;;;;11.17;56.73;100720.91;5199858;28;20033;-80
2022/03/29 05:52:08;;;;;;;1.63;1.52;;;;;;;11.28;55.99;100721.44;5193007;28;20045;-84
2022/03/29 05:54:40;;;;;;;2.17;1.98;;;;;;;11.34;55.98;100731.78;5212845;28;20068;-80
2022/03/29 05:57:11;;;;;;;1.67;1.35;;;;;;;11.21;56.29;100735.66;5199014;28;20060;-80
2022/03/29 05:59:43;;;;;;;1.65;1.55;;;;;;;11.37;55.68;100737.84;5186822;28;20177;-80
2022/03/29 06:02:14;;;;;;;5.80;1.80;;;;;;;11.31;55.65;100728.41;5182729;28;20033;-80
2022/03/29 06:04:47;;;;;;;4.80;2.50;;;;;;;11.31;57.53;100731.03;5190947;28;20033;-80
2022/03/29 06:07:19;;;;;;;;;;;;;;;11.15;57.59;100733.22;5185098;28;20511;-80
2022/03/29 06:09:49;;;;;;;2.60;2.38;;;;;;;11.13;56.58;100732.41;5207162;28;19916;-80
2022/03/29 06:12:21;;;;;;;9.77;2.42;;;;;;;11.03;57.26;100742.31;5159974;28;20029;-80
2022/03/29 06:14:52;;;;;;;1.23;1.13;;;;;;;11.19;56.50;100737.50;5181076;28;20516;-80
2022/03/29 06:17:22;;;;;;;3.05;1.95;;;;;;;11.17;56.46;100742.78;5173039;28;20049;-80
2022/03/29 06:19:54;;;;;;;2.85;2.65;;;;;;;11.18;56.53;100739.25;5188624;28;20059;-80
2022/03/29 06:22:25;;;;;;;1.77;1.67;;;;;;;11.20;56.76;100736.56;5174736;28;20022;-81
2022/03/29 06:24:55;;;;;;;1.67;1.58;;;;;;;11.16;56.63;100742.84;5205581;28;20480;-81
2022/03/29 06:27:27;;;;;;;1.25;1.23;;;;;;;11.29;57.06;100743.34;5204036;28;20045;-81
2022/03/29 06:29:58;;;;;;;2.10;1.60;;;;;;;11.35;56.38;100740.50;5191983;28;20071;-81
2022/03/29 06:32:28;;;;;;;2.72;2.45;;;;;;;11.34;55.96;100749.28;5209472;28;20303;-80
2022/03/29 06:34:59;;;;;;;1.58;1.25;;;;;;;11.27;56.24;100742.50;5215670;28;20021;-80
2022/03/29 06:37:29;;;;;;;0.95;0.95;;;;;;;11.25;56.51;100742.56;5211705;28;20059;-80
2022/03/29 06:40:00;;;;;;;2.15;1.60;;;;;;;11.13;58.10;100737.66;5175262;28;20021;-80
2022/03/29 06:42:30;;;;;;;1.73;1.63;;;;;;;11.18;57.94;100743.66;5188942;28;20040;-80
2022/03/29 06:45:01;;;;;;;3.00;2.03;;;;;;;11.29;56.80;100744.19;5218083;28;20030;-80
2022/03/29 06:47:32;;;;;;;2.58;2.47;;;;;;;11.29;56.82;100752.06;5203537;28;20042;-79
2022/03/29 06:50:06;;;;;;;2.70;2.50;;;;;;;11.39;56.69;100752.66;5191084;28;20029;-80
2022/03/29 06:52:38;;;;;;;3.83;2.92;;;;;;;11.42;56.90;100756.97;5203586;28;20041;-80
2022/03/29 06:55:11;;;;;;;1.35;1.25;;;;;;;11.26;57.39;100757.41;5183100;28;20048;-80
2022/03/29 06:57:42;;;;;;;2.47;2.27;;;;;;;11.32;57.08;100759.00;5219002;28;20100;-80
2022/03/29 07:00:13;;;;;;;2.60;1.85;;;;;;;11.40;58.53;100762.28;5241566;28;20121;-80
2022/03/29 07:02:44;;;;;;;3.10;2.42;;;;;;;11.33;57.72;100756.34;5207200;28;20044;-80
2022/03/29 07:05:15;;;;;;;2.40;2.20;;;;;;;11.38;58.47;100757.94;5190468;28;20045;-80
2022/03/29 07:07:46;;;;;;;1.75;1.65;;;;;;;11.26;58.30;100757.41;5178784;28;20095;-80
2022/03/29 07:13:07;;;;;;;3.92;3.60;;;;;;;11.32;58.96;100751.13;5209174;28;20036;-80
2022/03/29 07:15:38;;;;;;;4.85;4.05;;;;;;;10.77;63.12;100743.91;5194843;28;20045;-79
2022/03/29 07:18:09;;;;;;;1.65;1.55;;;;;;;11.22;59.35;100737.38;5196126;28;20091;-82
2022/03/29 07:20:39;;;;;;;8.77;4.43;;;;;;;11.05;60.61;100737.91;5170337;28;20053;-80
2022/03/29 07:23:10;;;;;;;3.30;3.00;;;;;;;11.19;60.41;100727.00;5174713;28;20041;-81
2022/03/29 07:25:41;;;;;;;5.50;2.75;;;;;;;11.08;60.00;100736.94;5186180;28;20052;-80
2022/03/29 07:28:12;;;;;;;3.75;1.90;;;;;;;11.17;60.08;100729.66;5196333;28;20514;-80
2022/03/29 07:30:43;;;;;;;2.63;2.42;;;;;;;11.32;59.44;100736.22;5209353;28;20044;-81
2022/03/29 07:33:17;;;;;;;3.75;3.33;;;;;;;11.20;61.36;100739.19;5198287;28;20029;-80
2022/03/29 07:35:49;;;;;;;2.28;1.90;;;;;;;11.35;59.45;100740.50;5180911;28;20064;-80
2022/03/29 07:38:20;;;;;;;3.92;3.55;;;;;;;11.20;60.54;100744.44;5202622;28;20021;-80
2022/03/29 07:40:52;;;;;;;4.03;3.47;;;;;;;11.11;61.88;100747.38;5192998;28;20499;-80
2022/03/29 07:43:23;;;;;;;2.15;2.05;;;;;;;11.02;62.44;100749.34;5222137;28;20039;-82
2022/03/29 07:45:55;;;;;;;3.97;3.58;;;;;;;11.11;60.87;100742.13;5204549;28;20036;-81
2022/03/29 07:48:25;;;;;;;3.10;2.33;;;;;;;10.92;62.68;100742.63;5190353;28;20715;-81
2022/03/29 07:50:59;;;;;;;1.83;1.73;;;;;;;11.13;61.35;100738.53;5195345;28;20053;-81
2022/03/29 07:53:30;;;;;;;3.15;2.40;;;;;;;10.93;62.82;100736.47;5198976;28;20068;-81
2022/03/29 07:56:01;;;;;;;3.67;3.38;;;;;;;10.99;62.40;100730.19;5186593;28;20041;-80
2022/03/29 07:58:32;;;;;;;2.63;2.42;;;;;;;11.13;61.05;100735.03;5196351;28;20038;-81
2022/03/29 08:01:07;;;;;;;1.33;1.30;;;;;;;11.22;60.35;100732.13;5192567;28;20045;-81
2022/03/29 08:03:38;;;;;;;3.58;2.58;;;;;;;11.33;60.71;100732.69;5191537;28;20536;-81
2022/03/29 08:06:09;;;;;;;1.58;1.50;;;;;;;11.39;60.10;100738.66;5188085;28;20072;-81
2022/03/29 08:08:43;;;;;;;2.17;2.00;;;;;;;11.45;60.35;100727.94;5190765;28;20033;-81
2022/03/29 08:11:14;;;;;;;6.30;2.88;;;;;;;11.36;61.03;100720.38;5170377;28;20723;-80
2022/03/29 08:13:46;;;;;;;3.38;3.08;;;;;;;11.52;60.45;100713.75;5183435;28;20060;-81
2022/03/29 08:16:16;;;;;;;13.80;4.28;;;;;;;11.63;60.15;100719.50;5179769;28;20073;-81
2022/03/29 08:18:47;;;;;;;4.25;3.85;;;;;;;11.39;62.38;100723.78;5180045;28;20033;-80
2022/03/29 08:24:10;;;;;;;2.38;2.05;;;;;;;11.57;60.76;100711.81;5194918;28;20041;-81
2022/03/29 08:26:44;;;;;;;8.20;3.20;;;;;;;11.73;60.64;100709.56;5196814;28;20052;-80
2022/03/29 08:29:18;;;;;;;2.08;1.98;;;;;;;11.77;59.88;100707.72;5181443;28;20049;-81
2022/03/29 08:31:53;;;;;;;2.03;1.92;;;;;;;11.85;60.11;100708.31;5182617;28;20037;-82
2022/03/29 08:34:23;;;;;;;18.05;3.30;;;;;;;11.93;59.52;100708.06;5204808;28;20039;-81
2022/03/29 08:36:54;;;;;;;2.80;2.53;;;;;;;11.87;59.63;100709.09;5181827;28;20120;-80
2022/03/29 08:39:25;;;;;;;4.43;2.55;;;;;;;12.00;59.68;100708.75;5203250;28;20025;-80
2022/03/29 08:42:02;;;;;;;2.58;2.38;;;;;;;12.11;58.94;100709.22;5217676;28;20041;-81
2022/03/29 08:44:39;;;;;;;4.45;2.60;;;;;;;12.00;59.58;100699.06;5201801;28;20488;-81
2022/03/29 08:47:15;;;;;;;3.90;2.47;;;;;;;12.13;59.24;100694.25;5178284;28;20034;-80
2022/03/29 08:49:49;;;;;;;9.55;3.58;;;;;;;12.14;58.99;100685.47;5203243;28;20543;-80
2022/03/29 08:52:20;;;;;;;1.80;1.58;;;;;;;11.98;60.40;100695.66;5186964;28;20060;-80
2022/03/29 08:54:51;;;;;;;3.03;2.72;;;;;;;12.12;60.20;100687.28;5204446;28;20037;-80
2022/03/29 08:57:21;;;;;;;5.10;3.17;;;;;;;12.23;59.14;100679.91;5174860;28;20672;-80
2022/03/29 08:59:54;;;;;;;1.60;1.50;;;;;;;12.00;60.08;100677.19;5194011;28;20043;-80
2022/03/29 09:02:32;;;;;;;2.28;2.17;;;;;;;12.05;60.49;100681.41;5207885;28;20253;-80
2022/03/29 09:05:12;;;;;;;3.13;2.92;;;;;;;12.14;60.17;100680.22;5177115;28;20120;-79
2022/03/29 09:07:48;;;;;;;;;;;;;;;12.25;59.81;100678.06;5199133;28;20030;-80
2022/03/29 09:10:21;;;;;;;2.25;2.15;;;;;;;12.28;59.49;100680.59;5203145;28;19976;-80
2022/03/29 09:12:51;;;;;;;5.43;3.58;;;;;;;12.21;59.58;100686.13;5172472;28;20118;-80
2022/03/29 09:15:23;;;;;;;1.95;1.85;;;;;;;12.04;60.48;100684.94;5206352;28;20535;-80
2022/03/29 09:18:06;;;;;;;7.78;2.75;;;;;;;12.27;60.51;100680.66;5198099;28;20037;-80
2022/03/29 09:20:37;;;;;;;4.45;3.17;;;;;;;12.47;58.91;100669.41;5202741;28;20045;-80
2022/03/29 09:23:15;;;;;;;2.47;2.28;;;;;;;12.46;59.09;100670.31;5200958;28;20049;-80
2022/03/29 09:25:47;;;;;;;1.88;1.77;;;;;;;12.48;59.35;100673.75;5211241;28;20052;-80
2022/03/29 09:28:21;;;;;;;2.33;2.17;;;;;;;12.39;59.84;100671.47;5198707;28;20029;-80
2022/03/29 09:30:53;;;;;;;5.15;2.45;;;;;;;12.34;59.76;100670.78;5205591;28;20524;-80
2022/03/29 09:33:32;;;;;;;2.63;1.98;;;;;;;12.58;58.92;100676.91;5193766;28;20098;-80
2022/03/29 09:36:09;;;;;;;2.45;2.25;;;;;;;12.60;58.89;100673.31;5189696;28;20033;-80
2022/03/29 09:38:46;;;;;;;3.20;2.58;;;;;;;12.71;58.58;100674.69;5209917;28;20103;-81
2022/03/29 09:41:28;;;;;;;2.22;2.03;;;;;;;12.49;59.47;100672.84;5209334;28;20715;-81
2022/03/29 09:44:10;;;;;;;3.30;2.85;;;;;;;12.51;59.20;100668.41;5207671;28;20118;-82
2022/03/29 09:46:55;;;;;;;3.03;2.78;;;;;;;12.73;59.12;100662.34;5210552;28;20033;-79
2022/03/29 09:49:27;;;;;;;3.15;2.85;;;;;;;12.71;58.83;100656.28;5210524;28;20423;-81
2022/03/29 09:52:09;;;;;;;1.45;1.35;;;;;;;12.71;58.38;100656.28;5197039;28;20093;-81
2022/03/29 09:54:42;;;;;;;2.15;2.05;;;;;;;12.72;59.29;100652.72;5193861;28;20615;-80
2022/03/29 09:57:13;;;;;;;2.35;2.17;;;;;;;12.72;58.83;100647.47;5180819;28;20338;-79
2022/03/29 09:59:51;;;;;;;1.48;1.42;;;;;;;12.82;58.82;100647.97;5201707;28;20059;-81
2022/03/29 10:02:21;;;;;;;3.38;3.10;;;;;;;12.98;59.09;100637.72;5194944;28;20034;-83
2022/03/29 10:04:52;;;;;;;3.90;2.72;;;;;;;12.91;60.52;100635.34;5206891;28;20026;-80
2022/03/29 10:07:23;;;;;;;2.30;2.10;;;;;;;13.03;59.16;100633.13;5196416;28;20037;-80
2022/03/29 10:09:54;;;;;;;4.03;3.72;;;;;;;12.94;59.74;100634.34;5192074;28;20022;-80
2022/03/29 10:12:25;;;;;;;9.05;5.47;;;;;;;13.11;58.98;100632.84;5206230;28;20044;-80
2022/03/29 10:14:56;;;;;;;3.38;3.17;;;;;;;13.04;59.62;100625.19;5197898;28;20017;-81
2022/03/29 10:17:28;;;;;;;2.90;2.60;;;;;;;13.31;58.57;100621.50;5195693;28;20034;-79
2022/03/29 10:19:59;;;;;;;3.35;3.05;;;;;;;13.28;59.20;100626.88;5194380;28;20081;-81
2022/03/29 10:22:31;;;;;;;4.68;3.38;;;;;;;13.43;58.30;100620.19;5216180;28;20084;-80
2022/03/29 10:25:05;;;;;;;4.20;3.80;;;;;;;13.46;58.15;100614.81;5227055;28;20558;-79
2022/03/29 10:27:36;;;;;;;2.72;2.53;;;;;;;13.48;58.39;100621.72;5183984;28;20120;-79
2022/03/29 10:30:08;;;;;;;2.08;1.92;;;;;;;13.54;58.34;100610.06;5183970;28;20038;-79
2022/03/29 10:32:38;;;;;;;11.05;2.83;;;;;;;13.65;58.49;100609.63;5189623;28;20165;-79
2022/03/29 10:35:10;;;;;;;2.58;2.38;;;;;;;13.79;57.61;100596.72;5201087;28;20139;-79
2022/03/29 10:38:03;;;;;;;2.95;1.80;;;;;;;13.84;57.32;100599.16;5184910;28;20061;-79
2022/03/29 10:40:37;;;;;;;3.45;2.70;;;;;;;13.90;57.73;100601.53;5209658;28;20052;-79
2022/03/29 10:43:29;;;;;;;22.10;4.57;;;;;;;13.84;57.35;100594.72;5190970;28;20022;-79
2022/03/29 10:45:59;;;;;;;3.38;2.75;;;;;;;14.05;57.09;100596.53;5179842;28;20044;-79
2022/03/29 10:48:30;;;;;;;1.58;1.48;;;;;;;13.93;57.72;100592.59;5192675;28;20029;-79
2022/03/29 10:51:05;;;;;;;1.92;1.83;;;;;;;14.19;56.37;100590.63;5185900;28;20700;-80
2022/03/29 10:53:46;;;;;;;4.20;3.17;;;;;;;14.15;56.57;100590.78;5185339;28;20553;-80
2022/03/29 10:56:24;;;;;;;3.72;3.38;;;;;;;14.23;56.69;100586.94;5173163;28;20041;-79
2022/03/29 10:59:01;;;;;;;3.97;2.72;;;;;;;14.02;56.44;100581.66;5176870;28;20050;-81
2022/03/29 11:01:33;;;;;;;6.22;3.40;;;;;;;14.39;55.71;100566.84;5180323;28;20045;-78
2022/03/29 11:04:07;;;;;;;9.88;2.70;;;;;;;14.24;56.29;100565.75;5211493;28;20033;-80
2022/03/29 11:07:07;;;;;;;2.78;2.58;;;;;;;14.39;55.87;100563.31;5183798;28;20045;-80
2022/03/29 11:09:38;;;;;;;9.38;5.22;;;;;;;14.20;56.09;100560.66;5187198;28;20034;-81
2022/03/29 11:12:35;;;;;;;5.13;3.40;;;;;;;14.50;55.72;100560.22;5186248;28;20046;-82
2022/03/29 11:15:24;;;;;;;7.28;4.93;;;;;;;14.52;55.54;100556.56;5196268;28;20033;-81
2022/03/29 11:17:56;;;;;;;4.13;3.70;;;;;;;14.48;55.94;100557.63;5207586;28;20467;-81
2022/03/29 11:20:35;;;;;;;5.60;4.38;;;;;;;14.33;56.48;100561.84;5209907;28;20038;-79
2022/03/29 11:23:09;;;;;;;4.38;4.00;;;;;;;14.32;56.26;100560.13;5188809;28;20053;-80
2022/03/29 11:25:47;;;;;;;5.80;5.20;;;;;;;14.29;56.32;100558.50;5170745;28;20164;-80
2022/03/29 11:28:18;;;;;;;4.80;4.35;;;;;;;14.26;56.24;100555.09;5172385;28;20083;-82
2022/03/29 11:30:55;;;;;;;10.63;6.38;;;;;;;14.20;56.15;100552.75;5203790;28;20033;-83
2022/03/29 11:33:35;;;;;;;5.10;4.13;;;;;;;14.05;56.63;100556.97;5172250;28;20330;-81
2022/03/29 11:36:07;;;;;;;6.75;4.38;;;;;;;14.15;56.07;100550.31;5191107;28;20038;-81
2022/03/29 11:38:38;;;;;;;4.78;3.15;;;;;;;14.26;56.28;100548.06;5188070;28;20120;-78
2022/03/29 11:41:23;;;;;;;4.03;3.58;;;;;;;14.23;56.21;100542.06;5186648;28;20101;-82
2022/03/29 11:43:59;;;;;;;5.18;4.00;;;;;;;14.16;55.53;100539.72;5183037;28;20033;-81
2022/03/29 11:46:53;;;;;;;4.47;3.97;;;;;;;14.05;55.91;100539.34;5172976;28;20052;-80
2022/03/29 11:49:31;;;;;;;5.03;4.53;;;;;;;14.32;55.40;100533.75;5210803;28;20025;-82
2022/03/29 11:52:13;;;;;;;7.88;4.95;;;;;;;14.15;55.32;100539.75;5146886;28;20028;-82
2022/03/29 11:54:46;;;;;;;10.52;4.70;;;;;;;14.05;56.00;100541.13;5208077;28;20043;-81
2022/03/29 11:57:29;;;;;;;4.55;4.15;;;;;;;13.89;56.43;100538.28;5185161;28;20041;-81
2022/03/29 12:00:00;;;;;;;4.27;3.93;;;;;;;13.90;56.24;100524.19;5191626;28;20034;-80
2022/03/29 12:02:40;;;;;;;10.90;6.90;;;;;;;13.99;56.09;100527.25;5214975;28;20291;-82